Time;durP1;ratioP1;P1;durP2;ratioP2;P2;SDS_P1;SDS_P2;PMS_P1;PMS_P2;Temp;Humidity;BMP_temperature;BMP_pressure;BME280_temperature;BME280_humidity;BME280_pressure;Samples;Min_cycle;Max_cycle;Signal;HPM_P1;HPM_P2
2021/12/08 00:01:18;;;;;;;51.50;47.33;;;-3.20;99.90;;;;;;4191472;28;20063;-47
2021/12/08 00:03:23;;;;;;;50.05;46.50;;;-3.10;99.90;;;;;;4191055;28;20427;-47
2021/12/08 00:05:26;;;;;;;50.65;46.35;;;-3.00;99.90;;;;;;4193794;28;20037;-49
2021/12/08 00:07:28;;;;;;;52.50;47.90;;;-3.00;99.90;;;;;;4190963;28;20099;-50
2021/12/08 00:14:06;;;;;;;53.10;48.25;;;-3.00;99.90;;;;;;4192924;28;20041;-49
2021/12/08 00:16:10;;;;;;;57.17;51.90;;;-3.10;99.90;;;;;;4189849;28;20448;-48
2021/12/08 00:18:23;;;;;;;52.03;48.03;;;-3.20;99.90;;;;;;4191677;28;20656;-46
2021/12/08 00:20:29;;;;;;;52.70;48.13;;;-3.30;99.90;;;;;;4192023;28;20040;-49
2021/12/08 00:22:31;;;;;;;54.03;49.40;;;-3.30;99.90;;;;;;4192651;28;20392;-48
2021/12/08 00:24:33;;;;;;;54.50;49.92;;;-3.20;99.90;;;;;;4193146;28;20037;-48
2021/12/08 00:26:36;;;;;;;52.75;48.65;;;-3.00;99.90;;;;;;4190833;28;20041;-49
2021/12/08 00:28:38;;;;;;;49.28;45.60;;;-2.90;99.90;;;;;;4191348;28;20037;-46
2021/12/08 00:30:44;;;;;;;54.20;49.13;;;-2.90;99.90;;;;;;4191525;28;20033;-48
2021/12/08 00:32:47;;;;;;;53.20;48.97;;;-3.00;99.90;;;;;;4195081;28;20097;-49
2021/12/08 00:34:49;;;;;;;54.10;49.75;;;-3.10;99.90;;;;;;4194552;28;20036;-46
2021/12/08 00:36:56;;;;;;;52.83;48.55;;;-3.20;99.90;;;;;;4176627;28;20040;-47
2021/12/08 00:38:58;;;;;;;52.53;47.95;;;-3.40;99.90;;;;;;4194045;28;20052;-47
2021/12/08 00:41:00;;;;;;;50.38;46.35;;;-3.30;99.90;;;;;;4194096;28;20032;-48
2021/12/08 00:43:05;;;;;;;51.90;47.50;;;-3.30;99.90;;;;;;4176866;28;20037;-49
2021/12/08 00:45:10;;;;;;;51.42;47.35;;;-3.30;99.90;;;;;;4193094;28;20045;-49
2021/12/08 00:47:13;;;;;;;54.15;49.45;;;-3.20;99.90;;;;;;4188379;28;20755;-47
2021/12/08 00:49:16;;;;;;;;;;;-3.20;99.90;;;;;;4176688;28;20041;-49
2021/12/08 00:51:18;;;;;;;51.33;47.45;;;-3.30;99.90;;;;;;4178227;28;19928;-49
2021/12/08 00:53:21;;;;;;;53.20;49.15;;;-3.40;99.90;;;;;;4179848;28;20098;-48
2021/12/08 00:55:24;;;;;;;53.25;48.90;;;-3.40;99.90;;;;;;4176987;28;20075;-49
2021/12/08 00:57:26;;;;;;;50.13;45.72;;;-3.40;99.90;;;;;;4176992;28;20063;-50
2021/12/08 00:59:29;;;;;;;53.30;48.70;;;-3.40;99.90;;;;;;4161399;28;20045;-48
2021/12/08 01:01:51;;;;;;;49.22;45.97;;;-3.30;99.90;;;;;;4177436;28;20051;-46
2021/12/08 01:03:53;;;;;;;47.63;44.35;;;-3.30;99.90;;;;;;4178738;28;20747;-47
2021/12/08 01:05:57;;;;;;;46.28;42.80;;;-3.30;99.90;;;;;;4176959;28;20090;-46
2021/12/08 01:07:59;;;;;;;47.33;43.90;;;-3.10;99.90;;;;;;4178227;28;20060;-48
2021/12/08 01:10:01;;;;;;;48.90;45.42;;;-3.20;99.90;;;;;;4177726;28;20543;-46
2021/12/08 01:12:24;;;;;;;45.47;42.13;;;-3.30;99.90;;;;;;4177781;28;20052;-49
2021/12/08 01:14:26;;;;;;;45.97;42.80;;;-3.20;99.90;;;;;;4176136;28;20045;-46
2021/12/08 01:16:28;;;;;;;46.63;43.05;;;-3.20;99.90;;;;;;4177962;28;20048;-49
2021/12/08 01:18:31;;;;;;;47.33;43.83;;;-3.20;99.90;;;;;;4176524;28;20048;-49
2021/12/08 01:20:34;;;;;;;51.08;47.20;;;-3.10;99.90;;;;;;4177994;28;20076;-49
2021/12/08 01:22:36;;;;;;;49.20;45.05;;;-3.20;99.90;;;;;;4177120;28;20041;-50
2021/12/08 01:24:38;;;;;;;52.97;48.60;;;-3.40;99.90;;;;;;4178031;28;20520;-48
2021/12/08 01:26:40;;;;;;;54.40;50.08;;;-3.40;99.90;;;;;;4177205;28;20075;-47
2021/12/08 01:28:44;;;;;;;54.40;50.22;;;-3.30;99.90;;;;;;4159318;28;20453;-49
2021/12/08 01:30:48;;;;;;;53.45;48.83;;;-3.30;99.90;;;;;;4177298;28;20041;-48
2021/12/08 01:32:52;;;;;;;52.80;48.95;;;-3.40;99.90;;;;;;4173619;28;20040;-46
2021/12/08 01:34:55;;;;;;;50.65;47.08;;;-3.50;99.90;;;;;;4177326;28;20388;-47
2021/12/08 01:36:57;;;;;;;50.50;46.25;;;-3.60;99.90;;;;;;4177887;28;20037;-48
2021/12/08 01:38:59;;;;;;;51.33;47.45;;;-3.60;99.90;;;;;;4177235;28;20048;-48
2021/12/08 01:41:03;;;;;;;51.08;46.95;;;-3.60;99.90;;;;;;4177960;28;20067;-46
2021/12/08 01:43:12;;;;;;;51.63;47.78;;;-3.70;99.90;;;;;;4176442;28;20033;-49
2021/12/08 01:47:39;;;;;;;46.78;43.70;;;-3.50;99.90;;;;;;4178394;28;20405;-48
2021/12/08 01:49:41;;;;;;;46.33;43.38;;;-3.50;99.90;;;;;;4181102;28;20083;-48
2021/12/08 01:51:44;;;;;;;47.92;44.85;;;-3.30;99.90;;;;;;4191641;28;20086;-48
2021/12/08 01:53:51;;;;;;;53.35;48.90;;;-3.30;99.90;;;;;;4191259;28;20040;-48
2021/12/08 01:55:55;;;;;;;49.80;46.03;;;-3.40;99.90;;;;;;4191502;28;20049;-48
2021/12/08 01:57:57;;;;;;;49.33;45.97;;;-3.50;99.90;;;;;;4193055;28;20037;-49
2021/12/08 01:59:59;;;;;;;47.58;44.70;;;-3.50;99.90;;;;;;4191640;28;20033;-48
2021/12/08 02:02:02;;;;;;;49.35;45.92;;;-3.50;99.90;;;;;;4177396;28;20048;-46
2021/12/08 02:04:06;;;;;;;48.67;45.50;;;-3.60;99.90;;;;;;4192954;28;20043;-47
2021/12/08 02:06:10;;;;;;;46.63;43.38;;;-3.60;99.90;;;;;;4193514;28;20033;-48
2021/12/08 02:08:12;;;;;;;46.17;43.47;;;-3.50;99.90;;;;;;4191385;28;20040;-49
2021/12/08 02:10:15;;;;;;;48.38;45.33;;;-3.50;99.90;;;;;;4175274;28;20052;-49
2021/12/08 02:12:17;;;;;;;47.83;44.80;;;-3.50;99.90;;;;;;4192999;28;20040;-48
2021/12/08 02:14:19;;;;;;;48.13;44.92;;;-3.60;99.90;;;;;;4194890;28;20044;-48
2021/12/08 02:16:22;;;;;;;51.85;48.03;;;-3.60;99.90;;;;;;4193621;28;20044;-47
2021/12/08 02:18:25;;;;;;;46.65;43.92;;;-3.50;99.90;;;;;;4188419;28;20037;-47
2021/12/08 02:20:29;;;;;;;50.08;46.88;;;-3.50;99.90;;;;;;4191924;28;20028;-48
2021/12/08 02:22:32;;;;;;;54.50;49.70;;;-3.50;99.90;;;;;;4192225;28;20038;-49
2021/12/08 02:24:34;;;;;;;70.50;62.83;;;-3.50;99.90;;;;;;4190270;28;20041;-48
2021/12/08 02:26:37;;;;;;;68.80;61.70;;;-3.50;99.90;;;;;;4192886;28;20044;-49
2021/12/08 02:28:39;;;;;;;59.15;53.60;;;-3.50;99.90;;;;;;4190195;28;21119;-49
2021/12/08 02:30:53;;;;;;;52.88;48.05;;;-3.50;99.90;;;;;;4191508;28;20492;-50
2021/12/08 02:47:12;;;;;;;45.95;42.53;;;-4.10;99.90;;;;;;4190478;28;20032;-46
2021/12/08 02:49:16;;;;;;;49.05;45.72;;;-4.10;99.90;;;;;;4193768;28;20043;-49
2021/12/08 02:51:20;;;;;;;49.85;46.38;;;-4.10;99.90;;;;;;4176218;28;20126;-50
2021/12/08 02:53:22;;;;;;;49.78;46.45;;;-4.10;99.90;;;;;;4175072;28;20041;-48
2021/12/08 02:55:26;;;;;;;49.28;45.22;;;-4.10;99.90;;;;;;4177859;28;20558;-49
2021/12/08 02:57:28;;;;;;;51.75;48.03;;;-4.10;99.90;;;;;;4175155;28;20044;-47
2021/12/08 02:59:30;;;;;;;52.13;48.65;;;-4.10;99.90;;;;;;4180877;28;20123;-45
2021/12/08 03:01:35;;;;;;;49.00;45.22;;;-4.10;99.90;;;;;;4180048;28;20041;-49
2021/12/08 03:03:38;;;;;;;52.95;49.10;;;-4.10;99.90;;;;;;4176823;28;20052;-49
2021/12/08 03:05:41;;;;;;;51.53;47.30;;;-4.00;99.90;;;;;;4175295;28;20061;-45
2021/12/08 03:07:43;;;;;;;51.05;47.53;;;-4.00;99.90;;;;;;4177179;28;20063;-49
2021/12/08 03:09:45;;;;;;;48.35;44.95;;;-4.00;99.90;;;;;;4176870;28;20045;-48
2021/12/08 03:11:50;;;;;;;50.25;46.95;;;-3.90;99.90;;;;;;4176124;28;20538;-46
2021/12/08 03:14:01;;;;;;;47.60;44.13;;;-3.90;99.90;;;;;;4175857;28;20353;-47
2021/12/08 03:16:04;;;;;;;49.15;46.17;;;-3.90;99.90;;;;;;4177157;28;20071;-48
2021/12/08 03:18:07;;;;;;;48.10;45.08;;;-3.90;99.90;;;;;;4175277;28;20037;-46
2021/12/08 03:20:14;;;;;;;;;;;-3.90;99.90;;;;;;4175806;28;20065;-45
2021/12/08 03:22:16;;;;;;;45.78;43.05;;;-3.90;99.90;;;;;;4176947;28;19927;-45
2021/12/08 03:24:34;;;;;;;42.42;40.22;;;-3.90;99.90;;;;;;4176576;28;20071;-46
2021/12/08 03:26:46;;;;;;;42.97;40.75;;;-3.80;99.90;;;;;;4177100;28;20051;-47
2021/12/08 03:28:58;;;;;;;42.05;40.13;;;-3.80;99.90;;;;;;4175863;28;20037;-47
2021/12/08 03:31:15;;;;;;;42.10;40.00;;;-3.70;99.90;;;;;;4175304;28;20408;-48
2021/12/08 03:33:18;;;;;;;47.35;44.58;;;-3.60;99.90;;;;;;4150087;28;20077;-46
2021/12/08 03:35:20;;;;;;;46.42;43.50;;;-3.60;99.90;;;;;;4176578;28;20060;-49
2021/12/08 03:37:27;;;;;;;48.88;45.95;;;-3.50;99.90;;;;;;4176399;28;20041;-46
2021/12/08 03:39:29;;;;;;;45.30;42.50;;;-3.50;99.90;;;;;;4176445;28;20405;-47
2021/12/08 03:41:34;;;;;;;45.78;42.83;;;-3.40;99.90;;;;;;4175655;28;20037;-49
2021/12/08 03:43:36;;;;;;;44.08;40.95;;;-3.40;99.90;;;;;;4175247;28;20392;-48
2021/12/08 03:45:44;;;;;;;47.33;44.22;;;-3.40;99.90;;;;;;4176701;28;20075;-47
2021/12/08 03:47:48;;;;;;;47.88;44.90;;;-3.20;99.90;;;;;;4175803;28;20041;-50
2021/12/08 03:49:51;;;;;;;45.67;42.67;;;-3.20;99.90;;;;;;4179359;28;20408;-47
2021/12/08 03:51:58;;;;;;;46.95;44.05;;;-3.00;99.90;;;;;;4191599;28;20036;-47
2021/12/08 03:54:00;;;;;;;46.35;43.80;;;-3.00;99.90;;;;;;4192615;28;20040;-49
2021/12/08 03:56:03;;;;;;;45.35;42.63;;;-3.00;99.90;;;;;;4190861;28;20549;-46
2021/12/08 03:58:06;;;;;;;45.20;42.65;;;-3.00;99.90;;;;;;4189456;28;20044;-47
2021/12/08 04:00:22;;;;;;;43.33;40.83;;;-2.90;99.90;;;;;;4191883;28;20040;-46
2021/12/08 04:02:25;;;;;;;44.88;42.40;;;-3.00;99.90;;;;;;4192000;28;20044;-50
2021/12/08 04:04:29;;;;;;;45.10;42.17;;;-2.90;99.90;;;;;;4174595;28;20455;-47
2021/12/08 04:06:39;;;;;;;46.35;43.35;;;-2.90;99.90;;;;;;4194869;28;20110;-50
2021/12/08 04:08:45;;;;;;;45.67;42.72;;;-3.00;99.90;;;;;;4193773;28;20510;-49
2021/12/08 04:10:51;;;;;;;45.03;42.42;;;-2.90;99.90;;;;;;4193769;28;20045;-49
2021/12/08 04:12:54;;;;;;;43.88;41.38;;;-2.90;99.90;;;;;;4194151;28;20060;-48
2021/12/08 04:15:04;;;;;;;43.60;40.92;;;-2.90;99.90;;;;;;4195673;28;20492;-49
2021/12/08 04:17:14;;;;;;;45.25;42.78;;;-2.90;99.90;;;;;;4194004;28;20158;-48
2021/12/08 04:19:18;;;;;;;46.22;43.72;;;-3.00;99.90;;;;;;4194931;28;20036;-50
2021/12/08 04:21:20;;;;;;;48.08;45.00;;;-3.10;99.90;;;;;;4193851;28;20032;-50
2021/12/08 04:23:25;;;;;;;45.08;42.47;;;-3.10;99.90;;;;;;4195497;28;20090;-47
2021/12/08 04:25:31;;;;;;;47.58;44.45;;;-3.20;99.90;;;;;;4195564;28;20044;-49
2021/12/08 04:27:36;;;;;;;50.28;47.10;;;-3.20;99.90;;;;;;4194642;28;20041;-47
2021/12/08 04:29:41;;;;;;;49.72;46.50;;;-3.20;99.90;;;;;;4194989;28;20036;-49
2021/12/08 04:31:44;;;;;;;46.30;43.38;;;-3.20;99.90;;;;;;4194501;28;20443;-47
2021/12/08 04:33:53;;;;;;;48.58;45.38;;;-3.20;99.90;;;;;;4193501;28;20072;-50
2021/12/08 04:35:56;;;;;;;49.17;46.38;;;-3.20;99.90;;;;;;4194992;28;20041;-49
2021/12/08 04:38:03;;;;;;;46.00;43.10;;;-3.20;99.90;;;;;;4177259;28;20037;-50
2021/12/08 04:42:26;;;;;;;45.28;42.55;;;-3.10;99.90;;;;;;4193619;28;20083;-49
2021/12/08 04:44:36;;;;;;;45.13;42.78;;;-3.10;99.90;;;;;;4185401;28;20033;-49
2021/12/08 05:07:29;;;;;;;43.92;41.42;;;-3.00;99.90;;;;;;4192514;28;20037;-47
2021/12/08 05:09:35;;;;;;;43.30;40.88;;;-2.90;99.90;;;;;;4189551;28;20040;-46
2021/12/08 05:11:43;;;;;;;44.05;41.28;;;-2.80;99.90;;;;;;4194134;28;20044;-47
2021/12/08 05:13:49;;;;;;;43.47;41.17;;;-2.80;99.90;;;;;;4193947;28;20445;-48
2021/12/08 05:15:55;;;;;;;42.47;40.17;;;-2.80;99.90;;;;;;4193803;28;20051;-48
2021/12/08 05:18:22;;;;;;;40.28;38.17;;;-2.70;99.90;;;;;;4192053;28;20665;-50
2021/12/08 05:20:39;;;;;;;46.72;43.28;;;-2.70;99.90;;;;;;4177252;28;20501;-46
2021/12/08 05:22:45;;;;;;;45.25;42.40;;;-2.70;99.90;;;;;;4194461;28;20090;-46
2021/12/08 05:24:51;;;;;;;45.30;42.50;;;-2.70;99.90;;;;;;4194017;28;20037;-47
2021/12/08 05:27:03;;;;;;;46.85;44.05;;;-2.70;99.90;;;;;;4192064;28;20036;-48
2021/12/08 05:29:13;;;;;;;46.65;43.85;;;-2.70;99.90;;;;;;4185046;28;20036;-47
2021/12/08 05:31:25;;;;;;;43.47;40.85;;;-2.70;99.90;;;;;;4194279;28;20055;-49
2021/12/08 05:33:28;;;;;;;43.40;40.85;;;-2.70;99.90;;;;;;4194058;28;20086;-46
2021/12/08 05:35:31;;;;;;;45.85;42.88;;;-2.70;99.90;;;;;;4192815;28;20097;-50
2021/12/08 05:37:34;;;;;;;46.67;43.90;;;-2.70;99.90;;;;;;4194554;28;20607;-47
2021/12/08 05:39:36;;;;;;;;;;;-2.70;99.90;;;;;;4192851;28;20090;-48
2021/12/08 05:41:40;;;;;;;43.88;41.13;;;-2.70;99.90;;;;;;4193589;28;19927;-48
2021/12/08 05:43:45;;;;;;;41.58;39.13;;;-2.70;99.90;;;;;;4176378;28;20068;-50
2021/12/08 05:45:49;;;;;;;43.60;41.15;;;-2.60;99.90;;;;;;4193099;28;20062;-47
2021/12/08 05:47:54;;;;;;;43.22;40.88;;;-2.60;99.90;;;;;;4193723;28;20496;-48
2021/12/08 05:49:58;;;;;;;44.47;41.58;;;-2.50;99.90;;;;;;4192377;28;20049;-49
2021/12/08 05:52:00;;;;;;;40.33;37.95;;;-2.50;99.90;;;;;;4193461;28;20636;-49
2021/12/08 05:54:07;;;;;;;45.95;42.92;;;-2.40;99.90;;;;;;4192958;28;20045;-49
2021/12/08 05:56:10;;;;;;;42.35;39.45;;;-2.40;99.90;;;;;;4192527;28;20439;-49
2021/12/08 05:58:14;;;;;;;;;;;-2.40;99.90;;;;;;4194495;28;20036;-49
2021/12/08 06:00:32;;;;;;;43.47;41.15;;;-2.50;99.90;;;;;;4192455;28;19924;-48
2021/12/08 06:02:37;;;;;;;44.60;42.03;;;-2.50;99.90;;;;;;4189765;28;20028;-47
2021/12/08 06:04:41;;;;;;;45.38;42.67;;;-2.50;99.90;;;;;;4192196;28;20090;-49
2021/12/08 06:06:45;;;;;;;47.78;44.35;;;-2.50;99.90;;;;;;4193719;28;20036;-46
2021/12/08 06:08:48;;;;;;;50.53;47.03;;;-2.60;99.90;;;;;;4192206;28;20037;-48
2021/12/08 06:11:00;;;;;;;47.40;44.60;;;-2.50;99.90;;;;;;4193465;28;20051;-48
2021/12/08 06:13:06;;;;;;;44.60;41.67;;;-2.60;99.90;;;;;;4192651;28;20040;-48
2021/12/08 06:15:08;;;;;;;42.88;40.30;;;-2.60;99.90;;;;;;4191054;28;20068;-49
2021/12/08 06:17:14;;;;;;;44.60;41.75;;;-2.70;99.90;;;;;;4182476;28;20036;-48
2021/12/08 06:19:19;;;;;;;41.92;39.72;;;-2.70;99.90;;;;;;4195981;28;20044;-49
2021/12/08 06:21:24;;;;;;;42.60;40.10;;;-2.60;99.90;;;;;;4192439;28;20029;-47
2021/12/08 06:23:26;;;;;;;40.15;38.15;;;-2.60;99.90;;;;;;4193334;28;20166;-49
2021/12/08 06:25:28;;;;;;;41.50;39.28;;;-2.60;99.90;;;;;;4193253;28;20109;-50
2021/12/08 06:27:31;;;;;;;40.95;39.03;;;-2.60;99.90;;;;;;4192032;28;20670;-50
2021/12/08 06:29:34;;;;;;;43.75;41.03;;;-2.50;99.90;;;;;;4188986;28;20059;-47
2021/12/08 06:31:37;;;;;;;39.30;37.10;;;-2.40;99.90;;;;;;4191971;28;20094;-50
2021/12/08 06:33:40;;;;;;;42.80;40.42;;;-2.40;99.90;;;;;;4193873;28;20093;-49
2021/12/08 06:35:47;;;;;;;42.85;40.10;;;-2.40;99.90;;;;;;4191815;28;20044;-49
2021/12/08 06:37:50;;;;;;;39.17;37.35;;;-2.40;99.90;;;;;;4191958;28;20484;-49
2021/12/08 06:39:59;;;;;;;41.13;38.85;;;-2.40;99.90;;;;;;4192131;28;20087;-49
2021/12/08 06:42:09;;;;;;;40.42;38.28;;;-2.30;99.90;;;;;;4190685;28;20039;-49
2021/12/08 06:44:24;;;;;;;44.35;40.92;;;-2.30;99.90;;;;;;4191351;28;20671;-46
2021/12/08 06:46:27;;;;;;;41.95;39.13;;;-2.20;99.90;;;;;;4193806;28;20452;-49
2021/12/08 06:48:33;;;;;;;39.22;36.88;;;-2.20;99.90;;;;;;4193150;28;20025;-46
2021/12/08 06:50:41;;;;;;;37.72;35.70;;;-2.10;99.90;;;;;;4173068;28;20061;-49
2021/12/08 06:52:44;;;;;;;42.05;39.45;;;-2.20;99.90;;;;;;4192873;28;20037;-50
2021/12/08 06:54:55;;;;;;;42.78;40.08;;;-2.10;99.90;;;;;;4192727;28;20040;-49
2021/12/08 06:57:04;;;;;;;40.92;38.53;;;-2.10;99.90;;;;;;4194133;28;20032;-47
2021/12/08 06:59:11;;;;;;;48.67;44.55;;;-2.10;99.90;;;;;;4192838;28;20597;-46
2021/12/08 07:04:15;;;;;;;37.53;35.75;;;-2.00;99.90;;;;;;4192949;28;20075;-47
2021/12/08 07:08:50;;;;;;;38.80;36.60;;;-1.90;99.90;;;;;;4190799;28;20045;-50
2021/12/08 07:10:56;;;;;;;39.50;37.47;;;-1.90;99.90;;;;;;4192382;28;20063;-48
2021/12/08 07:13:14;;;;;;;42.22;40.13;;;-1.90;99.90;;;;;;4192702;28;20036;-51
2021/12/08 07:15:26;;;;;;;40.42;38.10;;;-1.80;99.90;;;;;;4175876;28;20084;-49
2021/12/08 07:17:31;;;;;;;40.70;38.47;;;-1.80;99.90;;;;;;4188778;28;20044;-49
2021/12/08 07:19:44;;;;;;;40.65;38.40;;;-1.80;99.90;;;;;;4173946;28;20379;-48
2021/12/08 07:21:47;;;;;;;39.55;37.47;;;-1.70;99.90;;;;;;4193247;28;20041;-49
2021/12/08 07:23:55;;;;;;;37.97;35.90;;;-1.80;99.90;;;;;;4192681;28;20032;-49
2021/12/08 07:25:58;;;;;;;40.97;38.42;;;-1.80;99.90;;;;;;4191611;28;20490;-46
2021/12/08 07:28:04;;;;;;;35.58;33.63;;;-1.70;99.90;;;;;;4191427;28;20090;-48
2021/12/08 07:30:21;;;;;;;41.17;38.47;;;-1.70;99.90;;;;;;4192112;28;20461;-46
2021/12/08 07:32:30;;;;;;;40.65;38.15;;;-1.60;99.90;;;;;;4190740;28;20036;-51
2021/12/08 07:34:35;;;;;;;41.00;38.35;;;-1.60;99.90;;;;;;4192186;28;20496;-46
2021/12/08 07:36:42;;;;;;;45.78;42.20;;;-1.50;99.90;;;;;;4191517;28;20044;-47
2021/12/08 07:38:48;;;;;;;46.28;42.70;;;-1.50;99.90;;;;;;4193572;28;20047;-47
2021/12/08 07:41:18;;;;;;;46.33;43.17;;;-1.50;99.90;;;;;;4171908;28;20045;-50
2021/12/08 07:43:24;;;;;;;43.55;40.70;;;-1.50;99.90;;;;;;4187768;28;20032;-47
2021/12/08 07:45:35;;;;;;;43.05;40.20;;;-1.60;99.90;;;;;;4175634;28;20091;-48
2021/12/08 07:47:40;;;;;;;44.45;41.15;;;-1.60;99.90;;;;;;4192237;28;20040;-51
2021/12/08 07:49:52;;;;;;;46.80;43.72;;;-1.50;99.90;;;;;;4191731;28;20106;-50
2021/12/08 07:52:05;;;;;;;51.20;47.17;;;-1.50;99.90;;;;;;4190146;28;20047;-51
2021/12/08 07:54:08;;;;;;;54.28;50.28;;;-1.50;99.90;;;;;;4180637;28;20040;-51
2021/12/08 07:56:12;;;;;;;44.88;42.10;;;-1.50;99.90;;;;;;4172590;28;20100;-50
2021/12/08 07:58:17;;;;;;;45.85;42.75;;;-1.60;99.90;;;;;;4192104;28;20508;-51
2021/12/08 08:00:25;;;;;;;49.33;45.85;;;-1.60;99.90;;;;;;4190860;28;20112;-51
2021/12/08 08:02:28;;;;;;;53.15;48.42;;;-1.50;99.90;;;;;;4177130;28;20043;-49
2021/12/08 08:04:31;;;;;;;51.92;47.15;;;-1.60;99.90;;;;;;4193001;28;20029;-51
2021/12/08 08:06:37;;;;;;;49.88;46.20;;;-1.60;99.90;;;;;;4193073;28;20041;-51
2021/12/08 08:08:40;;;;;;;48.53;45.10;;;-1.60;99.90;;;;;;4188828;28;20115;-50
2021/12/08 08:10:51;;;;;;;44.47;41.85;;;-1.60;99.90;;;;;;4185246;28;20041;-51
2021/12/08 08:12:59;;;;;;;50.10;46.75;;;-1.60;99.90;;;;;;4188897;28;20033;-52
2021/12/08 08:15:07;;;;;;;46.80;43.75;;;-1.60;99.90;;;;;;4176037;28;20068;-53
2021/12/08 08:17:14;;;;;;;43.78;41.03;;;-1.60;99.90;;;;;;4188233;28;20045;-52
2021/12/08 08:19:19;;;;;;;50.08;46.22;;;-1.60;99.90;;;;;;4182697;28;20193;-53
2021/12/08 08:21:26;;;;;;;44.15;41.10;;;-1.60;99.90;;;;;;4189087;28;20611;-52
2021/12/08 08:23:31;;;;;;;48.80;45.13;;;-1.60;99.90;;;;;;4191434;28;20033;-52
2021/12/08 08:25:42;;;;;;;42.17;39.67;;;-1.60;99.90;;;;;;4190947;28;20035;-52
2021/12/08 08:27:46;;;;;;;46.70;43.58;;;-1.60;99.90;;;;;;4192535;28;20033;-53
2021/12/08 08:29:48;;;;;;;41.97;39.45;;;-1.60;99.90;;;;;;4191209;28;20037;-53
2021/12/08 08:31:59;;;;;;;45.30;42.80;;;-1.50;99.90;;;;;;4177275;28;20041;-53
2021/12/08 08:34:03;;;;;;;43.33;40.63;;;-1.50;99.90;;;;;;4190574;28;20072;-54
2021/12/08 08:36:10;;;;;;;45.95;42.85;;;-1.50;99.90;;;;;;4192523;28;20089;-53
2021/12/08 08:38:20;;;;;;;37.58;35.28;;;-1.50;99.90;;;;;;4191146;28;20051;-52
2021/12/08 08:40:43;;;;;;;39.30;37.60;;;-1.60;99.90;;;;;;4188637;28;20044;-53
2021/12/08 08:42:49;;;;;;;48.70;44.60;;;-1.60;99.90;;;;;;4189747;28;20098;-54
2021/12/08 08:44:58;;;;;;;42.13;39.97;;;-1.70;99.90;;;;;;4191730;28;20086;-54
2021/12/08 08:47:05;;;;;;;42.45;40.13;;;-1.60;99.90;;;;;;4186814;28;20037;-52
2021/12/08 08:49:13;;;;;;;42.13;40.05;;;-1.60;99.90;;;;;;4183028;28;20628;-54
2021/12/08 08:51:34;;;;;;;38.05;35.75;;;-1.60;99.90;;;;;;4191417;28;20511;-54
2021/12/08 08:53:41;;;;;;;41.88;39.60;;;-1.60;99.90;;;;;;4193425;28;20424;-54
2021/12/08 08:55:55;;;;;;;42.13;39.92;;;-1.60;99.90;;;;;;4194129;28;20467;-53
2021/12/08 08:57:58;;;;;;;41.10;39.00;;;-1.50;99.90;;;;;;4191782;28;20041;-53
2021/12/08 09:00:26;;;;;;;43.28;40.88;;;-1.50;99.90;;;;;;4195092;28;20127;-53
2021/12/08 09:02:37;;;;;;;37.78;36.05;;;-1.40;99.90;;;;;;4184512;28;20048;-55
2021/12/08 09:04:49;;;;;;;42.92;40.63;;;-1.40;99.90;;;;;;4193496;28;20045;-53
2021/12/08 09:06:56;;;;;;;43.67;40.95;;;-1.30;99.90;;;;;;4191318;28;20033;-53
2021/12/08 09:09:03;;;;;;;41.25;39.03;;;-1.20;99.90;;;;;;4195280;28;20412;-54
2021/12/08 09:11:25;;;;;;;39.22;37.45;;;-1.10;99.90;;;;;;4194004;28;20094;-55
2021/12/08 09:13:35;;;;;;;37.63;35.85;;;-1.00;99.90;;;;;;4194485;28;20041;-54
2021/12/08 09:15:50;;;;;;;38.85;36.90;;;-1.00;99.90;;;;;;4193236;28;20041;-54
2021/12/08 09:18:04;;;;;;;39.65;37.45;;;-0.90;99.90;;;;;;4192410;28;20063;-54
2021/12/08 09:20:20;;;;;;;40.10;37.65;;;-0.80;99.90;;;;;;4189006;28;20040;-54
2021/12/08 09:22:30;;;;;;;52.22;48.53;;;-0.70;99.90;;;;;;4190179;28;20455;-54
2021/12/08 09:24:38;;;;;;;57.13;52.15;;;-0.70;99.90;;;;;;4193639;28;20036;-54
2021/12/08 09:26:57;;;;;;;51.53;47.22;;;-0.70;99.90;;;;;;4177290;28;20045;-52
2021/12/08 09:29:18;;;;;;;46.00;41.53;;;-0.70;99.90;;;;;;4193610;28;20500;-54
2021/12/08 09:31:26;;;;;;;55.97;51.10;;;-0.70;99.90;;;;;;4193438;28;20040;-53
2021/12/08 09:33:39;;;;;;;46.67;43.40;;;-0.70;99.90;;;;;;4194284;28;20407;-53
2021/12/08 09:35:46;;;;;;;53.47;49.08;;;-0.70;99.90;;;;;;4192405;28;20525;-53
2021/12/08 09:37:57;;;;;;;52.13;48.20;;;-0.60;99.90;;;;;;4191411;28;20037;-54
2021/12/08 09:40:12;;;;;;;68.13;60.00;;;-0.60;99.90;;;;;;4193965;28;20041;-54
2021/12/08 09:42:39;;;;;;;68.22;61.30;;;-0.60;99.90;;;;;;4186335;28;20033;-53
2021/12/08 09:44:46;;;;;;;61.30;54.03;;;-0.50;99.90;;;;;;4190199;28;20029;-53
2021/12/08 09:46:50;;;;;;;53.53;48.60;;;-0.50;99.90;;;;;;4192320;28;20044;-52
2021/12/08 09:48:53;;;;;;;56.13;50.88;;;-0.40;99.90;;;;;;4195080;28;20036;-54
2021/12/08 09:50:58;;;;;;;54.70;49.10;;;-0.40;99.90;;;;;;4191985;28;20813;-53
2021/12/08 09:53:01;;;;;;;38.70;35.72;;;-0.30;99.90;;;;;;4191607;28;20522;-53
2021/12/08 09:55:04;;;;;;;46.53;42.40;;;-0.30;99.90;;;;;;4185154;28;20648;-53
2021/12/08 09:57:14;;;;;;;33.50;31.08;;;-0.20;99.90;;;;;;4189178;28;20444;-53
2021/12/08 09:59:17;;;;;;;37.33;34.42;;;-0.30;99.90;;;;;;4190569;28;20051;-52
2021/12/08 10:01:21;;;;;;;32.38;29.77;;;-0.40;99.90;;;;;;4193256;28;20048;-53
2021/12/08 10:03:24;;;;;;;46.85;43.17;;;-0.40;99.90;;;;;;4191995;28;20040;-53
2021/12/08 10:05:31;;;;;;;47.80;43.88;;;-0.40;99.90;;;;;;4193327;28;20052;-53
2021/12/08 10:07:33;;;;;;;51.13;46.53;;;-0.30;99.90;;;;;;4193662;28;20301;-53
2021/12/08 10:09:36;;;;;;;53.22;47.80;;;-0.20;99.90;;;;;;4192313;28;20090;-53
2021/12/08 10:11:38;;;;;;;50.80;45.97;;;-0.10;99.90;;;;;;4194123;28;20051;-53
2021/12/08 10:13:41;;;;;;;54.65;49.63;;;-0.10;99.90;;;;;;4190842;28;20509;-53
2021/12/08 10:15:44;;;;;;;50.00;45.17;;;0.00;99.90;;;;;;4191615;28;20478;-53
2021/12/08 10:17:46;;;;;;;53.67;48.55;;;0.00;99.90;;;;;;4191197;28;20047;-53
2021/12/08 10:20:24;;;;;;;49.65;44.78;;;0.00;99.90;;;;;;4193760;28;20048;-53
2021/12/08 10:22:27;;;;;;;26.60;24.60;;;0.10;99.90;;;;;;4189546;28;20668;-52
2021/12/08 10:24:30;;;;;;;88.70;68.47;;;0.20;99.90;;;;;;4192911;28;20045;-47
2021/12/08 10:26:33;;;;;;;70.10;58.67;;;0.30;99.90;;;;;;4190801;28;20036;-52
2021/12/08 10:28:42;;;;;;;52.67;45.92;;;0.40;99.90;;;;;;4192102;28;20033;-52
2021/12/08 10:30:58;;;;;;;47.38;42.47;;;0.50;99.90;;;;;;4192811;28;20059;-52
2021/12/08 10:33:07;;;;;;;37.05;33.28;;;0.60;99.90;;;;;;4191085;28;20691;-52
2021/12/08 10:35:49;;;;;;;32.03;28.40;;;0.70;99.90;;;;;;4186978;28;20044;-52
2021/12/08 10:38:01;;;;;;;16.80;15.60;;;0.80;99.90;;;;;;4190819;28;20036;-51
2021/12/08 10:40:08;;;;;;;18.30;17.23;;;0.80;99.90;;;;;;4189080;28;20036;-52
2021/12/08 10:42:18;;;;;;;16.83;15.82;;;0.90;99.90;;;;;;4192574;28;20450;-51
2021/12/08 10:44:32;;;;;;;13.65;13.20;;;0.90;99.90;;;;;;4193211;28;20098;-51
2021/12/08 10:46:38;;;;;;;12.50;12.02;;;0.90;99.90;;;;;;4191572;28;20032;-51
2021/12/08 10:48:45;;;;;;;13.68;13.18;;;1.10;99.90;;;;;;4189583;28;20047;-53
2021/12/08 10:55:55;;;;;;;15.25;14.20;;;1.30;99.90;;;;;;4191634;28;20098;-52
2021/12/08 10:57:57;;;;;;;11.70;10.75;;;1.40;99.90;;;;;;4192119;28;20078;-51
2021/12/08 11:00:04;;;;;;;13.10;12.15;;;1.50;99.90;;;;;;4191253;28;20044;-52
2021/12/08 11:02:09;;;;;;;12.38;11.57;;;1.60;99.90;;;;;;4192623;28;20636;-53
2021/12/08 11:04:32;;;;;;;10.73;10.38;;;1.60;99.90;;;;;;4187718;28;20044;-52
2021/12/08 11:06:37;;;;;;;10.40;10.02;;;1.80;99.90;;;;;;4190057;28;20033;-52
2021/12/08 11:08:44;;;;;;;11.82;11.23;;;2.00;99.90;;;;;;4192875;28;20068;-51
2021/12/08 11:11:04;;;;;;;11.90;11.38;;;2.00;99.90;;;;;;4191029;28;20035;-50
2021/12/08 11:13:08;;;;;;;13.93;12.88;;;2.10;99.90;;;;;;4181741;28;20032;-51
2021/12/08 11:15:20;;;;;;;13.98;12.95;;;2.10;99.90;;;;;;4189654;28;20044;-52
2021/12/08 11:17:25;;;;;;;13.35;12.32;;;2.10;99.90;;;;;;4190175;28;20527;-50
2021/12/08 11:19:27;;;;;;;12.50;11.70;;;2.10;99.90;;;;;;4190205;28;20040;-49
2021/12/08 11:21:32;;;;;;;;;;;2.10;99.90;;;;;;4193597;28;20040;-50
2021/12/08 11:23:45;;;;;;;9.95;9.57;;;2.10;99.90;;;;;;4192341;28;20316;-51
2021/12/08 11:25:50;;;;;;;12.77;11.63;;;2.10;99.90;;;;;;4192197;28;20028;-52
2021/12/08 11:27:52;;;;;;;9.65;9.10;;;2.20;99.90;;;;;;4190013;28;20035;-49
2021/12/08 11:29:55;;;;;;;12.40;11.68;;;2.30;99.90;;;;;;4192040;28;20071;-51
2021/12/08 11:32:09;;;;;;;16.13;14.90;;;2.30;99.90;;;;;;4191503;28;20548;-50
2021/12/08 11:34:18;;;;;;;12.07;10.43;;;2.30;99.90;;;;;;4178219;28;20037;-51
2021/12/08 11:36:24;;;;;;;8.23;7.95;;;2.40;99.90;;;;;;4186488;28;20036;-51
2021/12/08 11:38:26;;;;;;;10.30;9.68;;;2.50;99.90;;;;;;4187579;28;20051;-50
2021/12/08 11:40:34;;;;;;;9.50;8.43;;;2.50;99.90;;;;;;4182886;28;20036;-50